createdAt,value
2018-05-15T00:01:01.522Z,1.70
2018-05-15T00:03:29.159Z,1.73
2018-05-15T00:05:56.715Z,1.83
2018-05-15T00:08:24.274Z,2.07
2018-05-15T00:10:51.828Z,2.80
2018-05-15T00:13:19.458Z,1.80
2018-05-15T00:15:46.951Z,2.20
2018-05-15T00:18:14.524Z,3.37
2018-05-15T00:20:42.018Z,1.87
2018-05-15T00:23:13.320Z,1.73
2018-05-15T00:25:40.807Z,2.70
2018-05-15T00:28:08.271Z,1.70
2018-05-15T00:30:35.794Z,2.57
2018-05-15T00:33:03.263Z,1.97
2018-05-15T00:35:30.819Z,2.03
2018-05-15T00:37:58.298Z,2.20
2018-05-15T00:40:25.771Z,2.73
2018-05-15T00:42:53.266Z,1.60
2018-05-15T00:45:20.725Z,1.40
2018-05-15T00:47:48.201Z,4.50
2018-05-15T00:50:15.759Z,1.60
2018-05-15T00:52:43.238Z,4.43
2018-05-15T00:55:22.487Z,1.33
2018-05-15T00:57:49.974Z,3.33
2018-05-15T01:00:17.470Z,2.00
2018-05-15T01:02:44.952Z,2.13
2018-05-15T01:05:12.455Z,1.77
2018-05-15T01:07:40.043Z,2.03
2018-05-15T01:10:07.504Z,3.87
2018-05-15T01:12:35.060Z,2.00
2018-05-15T01:15:02.624Z,1.40
2018-05-15T01:17:30.106Z,1.47
2018-05-15T01:19:57.634Z,2.00
2018-05-15T01:22:25.122Z,1.43
2018-05-15T01:24:52.671Z,1.40
2018-05-15T01:27:20.171Z,2.50
2018-05-15T01:29:47.645Z,2.40
2018-05-15T01:32:15.134Z,1.60
2018-05-15T01:34:42.607Z,2.27
2018-05-15T01:37:10.098Z,1.00
2018-05-15T01:39:37.576Z,1.93
2018-05-15T01:42:05.077Z,1.63
2018-05-15T01:44:32.534Z,1.57
2018-05-15T01:47:00.018Z,2.60
2018-05-15T01:49:27.543Z,1.73
2018-05-15T01:51:55.194Z,2.20
2018-05-15T01:54:22.667Z,1.50
2018-05-15T01:56:50.155Z,1.50
2018-05-15T01:59:17.676Z,1.10
2018-05-15T02:01:45.167Z,1.57
2018-05-15T02:04:12.684Z,1.33
2018-05-15T02:06:40.151Z,1.87
2018-05-15T02:09:07.638Z,1.53
2018-05-15T02:11:35.168Z,1.67
2018-05-15T02:14:02.649Z,1.07
2018-05-15T02:16:30.115Z,1.40
2018-05-15T02:18:57.609Z,1.33
2018-05-15T02:21:25.074Z,1.90
2018-05-15T02:23:52.663Z,1.30
2018-05-15T02:26:20.122Z,1.43
2018-05-15T02:28:47.651Z,1.77
2018-05-15T02:31:15.127Z,1.47
2018-05-15T02:33:42.654Z,1.60
2018-05-15T02:36:10.114Z,2.07
2018-05-15T02:38:37.611Z,1.67
2018-05-15T02:41:05.079Z,1.50
2018-05-15T02:43:32.559Z,2.10
2018-05-15T02:46:00.091Z,1.23
2018-05-15T02:48:27.581Z,1.67
2018-05-15T02:50:55.102Z,2.77
2018-05-15T02:53:22.587Z,1.40
2018-05-15T02:55:50.086Z,1.93
2018-05-15T02:58:17.550Z,1.23
2018-05-15T03:00:45.036Z,1.60
2018-05-15T03:03:12.534Z,1.23
2018-05-15T03:05:40.060Z,1.70
2018-05-15T03:08:07.606Z,2.50
2018-05-15T03:10:35.225Z,1.60
2018-05-15T03:13:02.586Z,1.07
2018-05-15T03:15:30.062Z,1.40
2018-05-15T03:17:57.552Z,2.40
2018-05-15T03:20:25.011Z,1.70
2018-05-15T03:22:52.490Z,1.60
2018-05-15T03:25:20.015Z,1.63
2018-05-15T03:27:47.498Z,2.67
2018-05-15T03:30:15.075Z,1.60
2018-05-15T03:32:42.598Z,1.80
2018-05-15T03:35:10.088Z,1.60
2018-05-15T03:37:37.555Z,4.70
2018-05-15T03:40:05.054Z,1.53
2018-05-15T03:42:32.527Z,1.80
2018-05-15T03:45:00.050Z,2.20
2018-05-15T03:47:27.514Z,3.23
2018-05-15T03:49:54.999Z,3.07
2018-05-15T03:52:22.562Z,2.80
2018-05-15T03:54:50.062Z,2.83
2018-05-15T03:57:17.529Z,2.70
2018-05-15T03:59:45.022Z,3.30
2018-05-15T04:02:25.406Z,3.40
2018-05-15T04:05:04.839Z,2.10
2018-05-15T04:07:44.170Z,2.17
2018-05-15T04:10:11.658Z,2.57
2018-05-15T04:12:39.198Z,4.07
2018-05-15T04:15:06.742Z,3.23
2018-05-15T04:17:34.307Z,3.00
2018-05-15T04:20:01.966Z,5.97
2018-05-15T04:22:29.454Z,2.43
2018-05-15T04:24:56.986Z,3.23
2018-05-15T04:27:24.555Z,2.50
2018-05-15T04:29:52.111Z,4.07
2018-05-15T04:32:19.662Z,3.07
2018-05-15T04:34:47.151Z,2.57
2018-05-15T04:37:14.695Z,2.97
2018-05-15T04:39:42.184Z,2.43
2018-05-15T04:42:09.650Z,5.13
2018-05-15T04:44:37.167Z,2.73
2018-05-15T04:47:04.649Z,5.47
2018-05-15T04:49:32.182Z,2.53
2018-05-15T04:52:00.357Z,2.20
2018-05-15T04:54:28.839Z,2.60
2018-05-15T04:56:56.299Z,3.50
2018-05-15T04:59:23.855Z,2.70
2018-05-15T05:01:51.332Z,2.10
2018-05-15T05:04:18.875Z,2.03
2018-05-15T05:06:46.406Z,2.67
2018-05-15T05:09:13.898Z,3.00
2018-05-15T05:11:41.455Z,2.37
2018-05-15T05:14:09.007Z,2.87
2018-05-15T05:16:36.471Z,2.93
2018-05-15T05:19:03.963Z,2.80
2018-05-15T05:21:31.484Z,2.70
2018-05-15T05:23:59.043Z,2.43
2018-05-15T05:26:26.522Z,2.57
2018-05-15T05:28:53.988Z,2.67
2018-05-15T05:31:21.475Z,2.93
2018-05-15T05:33:48.935Z,5.03
2018-05-15T05:36:16.415Z,5.60
2018-05-15T05:38:43.890Z,3.87
2018-05-15T05:41:11.376Z,3.77
2018-05-15T05:43:38.845Z,6.20
2018-05-15T05:46:06.336Z,2.70
2018-05-15T05:48:33.814Z,3.17
2018-05-15T05:51:01.379Z,3.10
2018-05-15T05:53:29.247Z,3.30
2018-05-15T05:55:56.730Z,3.00
2018-05-15T05:58:24.258Z,3.47
2018-05-15T06:00:51.779Z,2.57
2018-05-15T06:03:19.286Z,2.63
2018-05-15T06:05:46.842Z,3.53
2018-05-15T06:08:14.302Z,3.43
2018-05-15T06:10:41.783Z,3.00
2018-05-15T06:13:09.287Z,2.67
2018-05-15T06:15:36.878Z,3.53
2018-05-15T06:18:04.338Z,2.70
2018-05-15T06:20:31.827Z,2.83
2018-05-15T06:22:59.294Z,2.93
2018-05-15T06:25:26.811Z,2.80
2018-05-15T06:27:54.405Z,3.30
2018-05-15T06:30:21.927Z,5.03
2018-05-15T06:32:49.466Z,3.97
2018-05-15T06:35:17.038Z,4.07
2018-05-15T06:37:44.502Z,3.90
2018-05-15T06:40:12.101Z,3.90
2018-05-15T06:42:39.592Z,3.93
2018-05-15T06:45:07.065Z,4.20
2018-05-15T06:47:34.797Z,3.33
2018-05-15T06:50:02.314Z,3.23
2018-05-15T06:52:29.810Z,3.73
2018-05-15T06:54:57.309Z,4.37
2018-05-15T06:57:24.795Z,5.57
2018-05-15T06:59:52.339Z,5.03
2018-05-15T07:02:19.859Z,5.17
2018-05-15T07:04:47.354Z,4.60
2018-05-15T07:07:15.260Z,4.27
2018-05-15T07:09:42.731Z,4.80
2018-05-15T07:12:10.254Z,6.77
2018-05-15T07:14:37.715Z,5.47
2018-05-15T07:17:05.202Z,5.50
2018-05-15T07:19:32.818Z,4.30
2018-05-15T07:22:00.318Z,4.83
2018-05-15T07:24:27.807Z,4.23
2018-05-15T07:26:55.294Z,5.30
2018-05-15T07:29:22.866Z,4.93
2018-05-15T07:31:50.402Z,5.10
2018-05-15T07:34:18.872Z,5.70
2018-05-15T07:36:46.407Z,5.87
2018-05-15T07:39:13.882Z,5.27
2018-05-15T07:41:41.583Z,5.27
2018-05-15T07:44:09.079Z,5.60
2018-05-15T07:46:36.900Z,7.33
2018-05-15T07:49:04.391Z,6.50
2018-05-15T07:51:31.881Z,7.03
2018-05-15T07:53:59.347Z,7.00
2018-05-15T07:56:26.841Z,5.73
2018-05-15T07:58:54.307Z,6.40
2018-05-15T08:01:21.793Z,6.13
2018-05-15T08:03:49.351Z,6.60
2018-05-15T08:06:16.851Z,5.23
2018-05-15T08:08:44.342Z,5.27
2018-05-15T08:11:11.813Z,5.33
2018-05-15T08:13:39.372Z,5.33
2018-05-15T08:16:06.835Z,7.80
2018-05-15T08:18:36.174Z,8.43
2018-05-15T08:21:03.787Z,6.47
2018-05-15T08:23:31.274Z,5.77
2018-05-15T08:25:58.766Z,6.07
2018-05-15T08:28:26.277Z,6.73
2018-05-15T08:30:53.872Z,7.00
2018-05-15T08:33:21.371Z,6.37
2018-05-15T08:35:49.140Z,7.63
2018-05-15T08:38:16.626Z,6.03
2018-05-15T08:40:44.118Z,6.90
2018-05-15T08:43:11.598Z,6.37
2018-05-15T08:45:39.167Z,6.13
2018-05-15T08:48:06.675Z,5.73
2018-05-15T08:50:34.143Z,5.93
2018-05-15T08:53:01.623Z,6.40
2018-05-15T08:55:29.187Z,6.13
2018-05-15T08:57:56.674Z,6.50
2018-05-15T09:00:24.206Z,7.00
2018-05-15T09:02:51.707Z,7.07
2018-05-15T09:05:19.218Z,6.33
2018-05-15T09:07:46.790Z,7.13
2018-05-15T09:10:14.250Z,7.57
2018-05-15T09:12:41.896Z,8.87
2018-05-15T09:15:09.493Z,7.43
2018-05-15T09:17:36.987Z,7.70
2018-05-15T09:20:04.454Z,9.90
2018-05-15T09:22:31.949Z,8.53
2018-05-15T09:24:59.436Z,10.23
2018-05-15T09:27:26.978Z,9.93
2018-05-15T09:29:54.489Z,10.33
2018-05-15T09:32:22.071Z,12.53
2018-05-15T09:34:49.557Z,10.70
2018-05-15T09:37:17.112Z,10.47
2018-05-15T09:39:44.612Z,10.40
2018-05-15T09:42:12.176Z,10.60
2018-05-15T09:44:39.673Z,10.67
2018-05-15T09:47:07.175Z,11.27
2018-05-15T09:49:34.675Z,10.97
2018-05-15T09:52:02.150Z,11.27
2018-05-15T09:54:29.653Z,12.80
2018-05-15T09:56:57.162Z,12.50
2018-05-15T09:59:24.727Z,13.13
2018-05-15T10:01:52.347Z,12.43
2018-05-15T10:04:19.842Z,13.03
2018-05-15T10:06:47.310Z,13.17
2018-05-15T10:09:14.834Z,28.27
2018-05-15T10:11:42.319Z,13.10
2018-05-15T10:14:09.830Z,15.17
2018-05-15T10:16:37.314Z,14.57
2018-05-15T10:19:04.819Z,14.23
2018-05-15T10:21:32.351Z,16.27
2018-05-15T10:23:59.849Z,20.00
2018-05-15T10:26:27.352Z,14.83
2018-05-15T10:28:54.926Z,17.50
2018-05-15T10:31:22.405Z,14.03
2018-05-15T10:33:49.946Z,15.20
2018-05-15T10:36:17.486Z,15.63
2018-05-15T10:38:44.995Z,17.37
2018-05-15T10:41:12.467Z,15.40
2018-05-15T10:43:40.091Z,15.60
2018-05-15T10:46:15.293Z,14.97
2018-05-15T10:48:42.791Z,16.17
2018-05-15T10:51:10.259Z,14.27
2018-05-15T10:53:37.930Z,15.60
2018-05-15T10:56:05.402Z,14.47
2018-05-15T10:58:32.959Z,15.40
2018-05-15T11:01:00.471Z,15.07
2018-05-15T11:03:28.065Z,16.00
2018-05-15T11:05:55.579Z,13.67
2018-05-15T11:08:23.103Z,15.67
2018-05-15T11:10:50.591Z,13.53
2018-05-15T11:13:18.174Z,16.20
2018-05-15T11:15:45.651Z,13.20
2018-05-15T11:18:25.103Z,17.57
2018-05-15T11:21:04.572Z,14.03
2018-05-15T11:23:43.891Z,13.20
2018-05-15T11:26:11.488Z,13.38
2018-05-15T11:28:39.010Z,13.87
2018-05-15T11:31:06.486Z,14.93
2018-05-15T11:33:34.063Z,12.80
2018-05-15T11:36:01.553Z,12.55
2018-05-15T11:38:29.073Z,15.70
2018-05-15T11:40:56.595Z,13.73
2018-05-15T11:43:24.456Z,12.88
2018-05-15T11:45:51.991Z,14.93
2018-05-15T11:48:19.649Z,11.50
2018-05-15T11:50:47.616Z,12.18
2018-05-15T11:53:15.327Z,11.55
2018-05-15T11:55:42.712Z,11.63
2018-05-15T11:58:09.601Z,11.35
2018-05-15T12:00:37.156Z,12.40
2018-05-15T12:03:04.655Z,13.23
2018-05-15T12:05:32.194Z,8.25
2018-05-15T12:07:59.662Z,5.27
2018-05-15T12:10:27.307Z,4.97
2018-05-15T12:12:57.829Z,4.30
2018-05-15T12:15:25.648Z,3.70
2018-05-15T12:17:53.418Z,4.00
2018-05-15T12:20:24.093Z,4.20
2018-05-15T12:22:51.665Z,8.23
2018-05-15T12:25:19.163Z,3.57
2018-05-15T12:27:46.656Z,3.57
2018-05-15T12:30:15.178Z,3.30
2018-05-15T12:32:42.825Z,2.50
2018-05-15T12:35:10.368Z,2.93
2018-05-15T12:37:37.835Z,2.80
2018-05-15T12:40:05.328Z,2.60
2018-05-15T12:42:32.938Z,2.35
2018-05-15T12:45:00.423Z,3.80
2018-05-15T12:47:27.941Z,2.42
2018-05-15T12:49:55.474Z,4.53
2018-05-15T12:52:23.098Z,3.05
2018-05-15T12:54:50.579Z,2.35
2018-05-15T12:57:18.123Z,6.45
2018-05-15T12:59:45.590Z,2.37
2018-05-15T13:02:13.087Z,3.45
2018-05-15T13:04:40.556Z,1.98
2018-05-15T13:07:08.167Z,2.60
2018-05-15T13:09:35.626Z,1.90
2018-05-15T13:12:03.123Z,2.80
2018-05-15T13:14:30.602Z,2.22
2018-05-15T13:16:58.091Z,2.90
2018-05-15T13:19:25.623Z,6.55
2018-05-15T13:21:53.203Z,3.95
2018-05-15T13:24:20.756Z,2.30
2018-05-15T13:26:48.214Z,3.28
2018-05-15T13:29:15.707Z,4.23
2018-05-15T13:31:43.199Z,2.73
2018-05-15T13:34:10.679Z,2.77
2018-05-15T13:36:38.183Z,3.63
2018-05-15T13:39:05.752Z,3.90
2018-05-15T13:41:33.238Z,3.97
2018-05-15T13:44:00.750Z,5.57
2018-05-15T13:46:28.328Z,3.75
2018-05-15T13:48:55.851Z,3.40
2018-05-15T13:51:23.358Z,3.97
2018-05-15T13:53:50.919Z,4.05
2018-05-15T13:56:18.425Z,3.47
2018-05-15T13:58:45.886Z,3.60
2018-05-15T14:01:13.481Z,6.67
2018-05-15T14:03:40.942Z,2.83
2018-05-15T14:06:08.469Z,2.53
2018-05-15T14:08:35.934Z,3.07
2018-05-15T14:11:03.453Z,3.47
2018-05-15T14:13:30.962Z,3.60
2018-05-15T14:15:58.482Z,3.40
2018-05-15T14:18:25.954Z,5.60
2018-05-15T14:20:53.430Z,4.33
2018-05-15T14:23:20.935Z,4.27
2018-05-15T14:25:48.427Z,4.13
2018-05-15T14:28:17.528Z,3.10
2018-05-15T14:30:44.994Z,6.30
2018-05-15T14:33:12.515Z,5.60
2018-05-15T14:35:39.979Z,5.47
2018-05-15T14:38:11.095Z,6.07
2018-05-15T14:40:39.187Z,7.73
2018-05-15T14:43:21.433Z,5.30
2018-05-15T14:45:49.619Z,8.80
2018-05-15T14:48:17.102Z,6.77
2018-05-15T14:53:54.979Z,11.10
2018-05-15T14:56:22.446Z,14.70
2018-05-15T14:58:49.991Z,11.70
2018-05-15T15:01:17.476Z,10.50
2018-05-15T15:03:44.972Z,8.17
2018-05-15T15:06:12.463Z,6.63
2018-05-15T15:08:40.122Z,7.97
2018-05-15T15:11:07.526Z,9.23
2018-05-15T15:13:35.013Z,8.40
2018-05-15T15:16:02.574Z,6.43
2018-05-15T15:18:30.098Z,6.97
2018-05-15T15:20:57.615Z,8.70
2018-05-15T15:23:25.223Z,7.47
2018-05-15T15:25:52.758Z,5.80
2018-05-15T15:28:20.258Z,6.30
2018-05-15T15:30:47.731Z,5.73
2018-05-15T15:33:15.318Z,5.67
2018-05-15T15:35:42.774Z,4.07
2018-05-15T15:38:10.286Z,5.23
2018-05-15T15:40:37.884Z,5.47
2018-05-15T15:43:05.318Z,4.80
2018-05-15T15:45:32.935Z,5.50
2018-05-15T15:48:00.501Z,5.17
2018-05-15T15:50:28.068Z,3.33
2018-05-15T15:52:55.562Z,13.30
2018-05-15T15:55:23.026Z,4.93
2018-05-15T15:57:50.534Z,28.13
2018-05-15T16:00:18.012Z,4.07
2018-05-15T16:02:45.534Z,4.43
2018-05-15T16:05:13.018Z,5.10
2018-05-15T16:07:40.518Z,4.20
2018-05-15T16:10:08.049Z,3.80
2018-05-15T16:12:35.483Z,5.77
2018-05-15T16:15:02.967Z,18.40
2018-05-15T16:17:30.486Z,9.23
2018-05-15T16:19:57.991Z,5.30
2018-05-15T16:22:25.487Z,11.50
2018-05-15T16:24:53.059Z,4.90
2018-05-15T16:27:20.603Z,25.40
2018-05-15T16:29:48.114Z,11.37
2018-05-15T16:32:15.668Z,6.77
2018-05-15T16:34:43.187Z,14.70
2018-05-15T16:37:14.653Z,10.83
2018-05-15T16:39:42.154Z,6.23
2018-05-15T16:42:09.770Z,15.20
2018-05-15T16:44:37.273Z,9.43
2018-05-15T16:47:06.945Z,5.10
2018-05-15T16:49:34.430Z,5.90
2018-05-15T16:52:01.933Z,6.10
2018-05-15T16:54:29.611Z,9.63
2018-05-15T16:56:59.492Z,7.30
2018-05-15T16:59:26.994Z,6.63
2018-05-15T17:01:54.625Z,6.20
2018-05-15T17:04:22.204Z,7.80
2018-05-15T17:06:51.811Z,6.17
2018-05-15T17:09:19.299Z,6.90
2018-05-15T17:11:46.782Z,8.00
2018-05-15T17:14:14.269Z,5.57
2018-05-15T17:16:41.734Z,5.63
2018-05-15T17:19:09.223Z,5.83
2018-05-15T17:21:36.746Z,7.60
2018-05-15T17:24:04.239Z,7.13
2018-05-15T17:26:31.748Z,7.40
2018-05-15T17:28:59.271Z,6.60
2018-05-15T17:31:26.867Z,7.00
2018-05-15T17:33:54.424Z,5.90
2018-05-15T17:36:21.910Z,7.03
2018-05-15T17:38:49.399Z,9.63
2018-05-15T17:41:17.022Z,8.53
2018-05-15T17:43:44.654Z,8.30
2018-05-15T17:46:12.139Z,6.87
2018-05-15T17:48:39.622Z,6.57
2018-05-15T17:51:07.188Z,6.40
2018-05-15T17:53:34.837Z,7.30
2018-05-15T17:56:02.365Z,7.27
2018-05-15T17:58:29.894Z,6.50
2018-05-15T18:00:57.428Z,5.93
2018-05-15T18:03:24.866Z,5.67
2018-05-15T18:05:52.445Z,5.90
2018-05-15T18:08:19.906Z,6.27
2018-05-15T18:10:47.430Z,6.70
2018-05-15T18:13:14.899Z,7.00
2018-05-15T18:15:42.455Z,6.40
2018-05-15T18:18:10.022Z,6.47
2018-05-15T18:20:37.512Z,6.30
2018-05-15T18:23:04.978Z,6.73
2018-05-15T18:25:32.492Z,5.73
2018-05-15T18:27:59.972Z,5.67
2018-05-15T18:30:27.492Z,5.13
2018-05-15T18:32:55.224Z,5.33
2018-05-15T18:35:22.731Z,5.00
2018-05-15T18:37:50.218Z,6.20
2018-05-15T18:40:17.758Z,5.33
2018-05-15T18:42:45.223Z,6.10
2018-05-15T18:45:12.719Z,16.23
2018-05-15T18:47:40.201Z,7.17
2018-05-15T18:50:07.794Z,8.23
2018-05-15T18:52:35.348Z,7.47
2018-05-15T18:55:02.841Z,8.87
2018-05-15T18:57:30.334Z,12.17
2018-05-15T18:59:57.935Z,10.00
2018-05-15T19:02:25.403Z,7.10
2018-05-15T19:04:52.942Z,7.73
2018-05-15T19:07:20.539Z,8.67
2018-05-15T19:09:48.060Z,8.27
2018-05-15T19:12:15.557Z,8.30
2018-05-15T19:14:43.043Z,8.00
2018-05-15T19:17:10.549Z,7.13
2018-05-15T19:19:38.258Z,5.90
2018-05-15T19:22:05.775Z,7.60
2018-05-15T19:24:33.275Z,7.07
2018-05-15T19:27:00.864Z,17.70
2018-05-15T19:29:28.311Z,10.70
2018-05-15T19:31:55.818Z,8.43
2018-05-15T19:34:25.704Z,7.97
2018-05-15T19:39:48.967Z,8.43
2018-05-15T19:42:16.477Z,8.07
2018-05-15T19:44:43.936Z,7.40
2018-05-15T19:47:11.463Z,8.30
2018-05-15T19:49:38.927Z,7.10
2018-05-15T19:52:06.440Z,7.53
2018-05-15T19:54:34.078Z,6.97
2018-05-15T19:57:01.566Z,6.80
2018-05-15T19:59:29.038Z,9.77
2018-05-15T20:01:56.662Z,8.43
2018-05-15T20:04:24.093Z,7.80
2018-05-15T20:06:51.728Z,7.40
2018-05-15T20:09:19.190Z,7.73
2018-05-15T20:11:46.691Z,8.60
2018-05-15T20:14:14.218Z,8.00
2018-05-15T20:16:41.770Z,8.37
2018-05-15T20:19:09.269Z,23.93
2018-05-15T20:21:36.787Z,70.70
2018-05-15T20:24:04.260Z,42.00
2018-05-15T20:26:31.773Z,10.13
2018-05-15T20:29:00.244Z,9.27
2018-05-15T20:31:27.659Z,9.60
2018-05-15T20:33:55.299Z,10.70
2018-05-15T20:36:22.824Z,9.13
2018-05-15T20:38:50.291Z,10.00
2018-05-15T20:41:17.774Z,9.53
2018-05-15T20:43:45.340Z,10.03
2018-05-15T20:46:12.912Z,11.23
2018-05-15T20:48:40.387Z,12.23
2018-05-15T20:51:07.894Z,11.57
2018-05-15T20:53:35.618Z,11.73
2018-05-15T20:56:03.146Z,12.87
2018-05-15T20:58:30.672Z,12.40
2018-05-15T21:00:58.142Z,11.57
2018-05-15T21:03:25.718Z,12.40
2018-05-15T21:05:53.277Z,11.80
2018-05-15T21:08:20.916Z,11.57
2018-05-15T21:10:48.419Z,11.70
2018-05-15T21:13:15.974Z,11.60
2018-05-15T21:15:43.534Z,12.17
2018-05-15T21:18:11.026Z,12.00
2018-05-15T21:20:38.510Z,12.47
2018-05-15T21:23:06.093Z,11.93
2018-05-15T21:25:33.654Z,12.10
2018-05-15T21:28:01.149Z,13.73
2018-05-15T21:30:28.667Z,12.17
2018-05-15T21:32:56.182Z,11.83
2018-05-15T21:35:23.663Z,11.37
2018-05-15T21:37:51.264Z,10.23
2018-05-15T21:40:18.734Z,10.33
2018-05-15T21:42:46.278Z,11.30
2018-05-15T21:45:13.832Z,10.93
2018-05-15T21:47:41.363Z,11.57
2018-05-15T21:50:08.830Z,10.57
2018-05-15T21:52:36.403Z,10.53
2018-05-15T21:55:03.854Z,9.77
2018-05-15T21:57:31.440Z,10.80
2018-05-15T21:59:58.905Z,11.30
2018-05-15T22:02:26.434Z,13.77
2018-05-15T22:04:53.919Z,14.27
2018-05-15T22:07:21.412Z,14.17
2018-05-15T22:09:48.883Z,15.77
2018-05-15T22:12:28.351Z,15.27
2018-05-15T22:15:09.954Z,13.23
2018-05-15T22:17:49.222Z,11.17
2018-05-15T22:20:28.473Z,10.57
2018-05-15T22:22:55.434Z,10.70
2018-05-15T22:25:22.922Z,10.00
2018-05-15T22:27:50.421Z,9.90
2018-05-15T22:30:17.897Z,10.23
2018-05-15T22:32:45.367Z,10.03
2018-05-15T22:35:12.938Z,8.83
2018-05-15T22:37:40.502Z,9.77
2018-05-15T22:40:07.995Z,10.07
2018-05-15T22:42:35.468Z,11.13
2018-05-15T22:45:02.971Z,10.33
2018-05-15T22:47:30.466Z,11.60
2018-05-15T22:49:57.958Z,11.30
2018-05-15T22:52:25.457Z,11.13
2018-05-15T22:54:52.958Z,10.63
2018-05-15T22:57:20.456Z,11.07
2018-05-15T22:59:47.936Z,11.53
2018-05-15T23:02:15.495Z,11.80
2018-05-15T23:04:45.002Z,11.53
2018-05-15T23:07:12.476Z,14.77
2018-05-15T23:09:40.010Z,14.00
2018-05-15T23:12:07.579Z,14.57
2018-05-15T23:14:35.131Z,14.10
2018-05-15T23:17:02.685Z,13.93
2018-05-15T23:19:30.289Z,15.27
2018-05-15T23:21:57.763Z,12.47
2018-05-15T23:24:25.262Z,15.57
2018-05-15T23:26:52.738Z,16.07
2018-05-15T23:29:20.298Z,16.47
2018-05-15T23:31:47.773Z,14.53
2018-05-15T23:34:15.305Z,14.17
2018-05-15T23:36:42.854Z,13.70
2018-05-15T23:39:10.352Z,12.50
2018-05-15T23:41:37.823Z,12.70
2018-05-15T23:44:05.339Z,11.40
2018-05-15T23:46:32.819Z,11.77
2018-05-15T23:49:00.311Z,12.13
2018-05-15T23:51:27.810Z,11.50
2018-05-15T23:53:55.298Z,11.87
2018-05-15T23:56:22.774Z,11.47
2018-05-15T23:58:50.256Z,10.83
